Time;durP1;ratioP1;P1;durP2;ratioP2;P2;SDS_P1;SDS_P2;PMS_P1;PMS_P2;Temp;Humidity;BMP_temperature;BMP_pressure;BME280_temperature;BME280_humidity;BME280_pressure;Samples;Min_cycle;Max_cycle;Signal;HPM_P1;HPM_P2
2021/01/06 00:00:41;;;;;;;118.80;44.10;;;1.50;96.20;;;;;;5070181;28;20403;-83
2021/01/06 00:03:16;;;;;;;121.30;43.90;;;1.50;96.20;;;;;;5068640;28;20415;-82
2021/01/06 00:05:43;;;;;;;115.03;43.65;;;1.50;96.20;;;;;;5090215;28;20489;-82
2021/01/06 00:08:10;;;;;;;124.20;46.03;;;1.50;96.20;;;;;;5089879;28;20438;-82
2021/01/06 00:10:36;;;;;;;126.13;45.20;;;1.50;96.20;;;;;;5068821;28;20422;-82
2021/01/06 00:13:04;;;;;;;128.73;45.03;;;1.40;96.30;;;;;;5073757;28;20504;-82
2021/01/06 00:15:36;;;;;;;128.37;45.80;;;1.40;96.30;;;;;;5056581;28;20769;-83
2021/01/06 00:18:04;;;;;;;134.98;45.20;;;1.40;96.40;;;;;;5055795;28;20911;-82
2021/01/06 00:20:31;;;;;;;133.35;45.30;;;1.40;96.50;;;;;;5055863;28;20532;-83
2021/01/06 00:22:58;;;;;;;127.82;44.90;;;1.30;96.60;;;;;;5093070;28;20812;-82
2021/01/06 00:25:28;;;;;;;128.88;45.05;;;1.40;96.60;;;;;;5062357;28;20812;-83
2021/01/06 00:27:55;;;;;;;130.63;44.50;;;1.40;96.60;;;;;;5055493;28;20808;-83
2021/01/06 00:30:30;;;;;;;125.03;44.35;;;1.40;96.50;;;;;;5059626;28;20459;-82
2021/01/06 00:32:57;;;;;;;128.02;45.13;;;1.30;96.40;;;;;;5075730;28;20941;-82
2021/01/06 00:35:25;;;;;;;128.57;44.67;;;1.40;96.50;;;;;;5090930;28;20398;-82
2021/01/06 00:37:57;;;;;;;130.50;45.40;;;1.30;96.50;;;;;;5093609;28;20402;-82
2021/01/06 00:40:30;;;;;;;126.07;44.95;;;1.30;96.50;;;;;;5070236;28;20807;-82
2021/01/06 00:42:58;;;;;;;123.57;43.78;;;1.30;96.60;;;;;;5073044;28;20400;-82
2021/01/06 00:45:26;;;;;;;115.00;42.72;;;1.30;96.70;;;;;;5065050;28;20441;-82
2021/01/06 00:47:54;;;;;;;117.05;42.85;;;1.30;96.60;;;;;;5075038;28;20431;-82
2021/01/06 00:50:26;;;;;;;108.68;41.13;;;1.30;96.70;;;;;;5074682;28;20459;-82
2021/01/06 00:52:57;;;;;;;110.78;41.30;;;1.30;96.70;;;;;;5055651;28;20399;-82
2021/01/06 00:55:23;;;;;;;110.28;41.33;;;1.30;96.80;;;;;;5072538;28;20453;-83
2021/01/06 00:57:51;;;;;;;107.07;40.45;;;1.30;96.70;;;;;;5084417;28;20402;-82
2021/01/06 01:00:20;;;;;;;108.72;40.40;;;1.20;96.80;;;;;;5074529;28;20398;-82
2021/01/06 01:02:50;;;;;;;108.55;41.70;;;1.20;96.80;;;;;;5072006;28;20442;-82
2021/01/06 01:05:23;;;;;;;101.13;39.88;;;1.30;96.80;;;;;;5074584;28;20425;-82
2021/01/06 01:07:49;;;;;;;103.38;40.65;;;1.30;96.80;;;;;;5071518;28;21045;-82
2021/01/06 01:10:31;;;;;;;107.07;40.93;;;1.30;96.80;;;;;;5074683;28;20442;-82
2021/01/06 01:13:11;;;;;;;97.63;39.45;;;1.20;96.80;;;;;;5071332;28;20454;-82
2021/01/06 01:15:40;;;;;;;96.38;38.85;;;1.30;96.80;;;;;;5074659;28;20459;-82
2021/01/06 01:18:10;;;;;;;97.15;38.60;;;1.30;96.80;;;;;;5089319;28;20428;-82
2021/01/06 01:20:43;;;;;;;99.53;39.20;;;1.30;96.70;;;;;;5074286;28;20488;-82
2021/01/06 01:23:10;;;;;;;97.13;38.73;;;1.30;96.70;;;;;;5083836;28;20454;-82
2021/01/06 01:25:36;;;;;;;99.50;39.85;;;1.20;96.70;;;;;;5053631;28;20467;-82
2021/01/06 01:28:03;;;;;;;97.15;38.50;;;1.20;96.70;;;;;;5053243;28;20418;-82
2021/01/06 01:30:32;;;;;;;95.97;38.28;;;1.20;96.80;;;;;;5073992;28;20398;-82
2021/01/06 01:33:01;;;;;;;98.50;39.00;;;1.30;96.90;;;;;;5092235;28;20411;-82
2021/01/06 01:35:30;;;;;;;96.47;39.83;;;1.20;96.80;;;;;;5089942;28;20394;-82
2021/01/06 01:38:00;;;;;;;94.50;39.30;;;1.20;96.80;;;;;;5073598;28;21509;-82
2021/01/06 01:40:35;;;;;;;91.80;38.75;;;1.20;96.90;;;;;;5089215;28;20409;-82
2021/01/06 01:43:13;;;;;;;88.22;37.08;;;1.20;96.90;;;;;;5074227;28;20458;-82
2021/01/06 01:46:00;;;;;;;90.53;37.63;;;1.30;96.80;;;;;;5066185;28;20892;-82
2021/01/06 01:48:26;;;;;;;82.35;35.72;;;1.20;96.80;;;;;;5053762;28;20957;-82
2021/01/06 01:50:59;;;;;;;81.23;36.17;;;1.20;96.70;;;;;;5067449;28;20986;-82
2021/01/06 01:53:36;;;;;;;82.88;35.42;;;1.20;96.90;;;;;;5091584;28;20463;-82
2021/01/06 01:56:07;;;;;;;78.75;35.97;;;1.20;96.80;;;;;;5087870;28;20437;-82
2021/01/06 01:58:36;;;;;;;77.53;35.27;;;1.20;96.80;;;;;;5073261;28;20419;-82
2021/01/06 02:01:03;;;;;;;76.80;35.83;;;1.20;96.90;;;;;;5070114;28;20776;-82
2021/01/06 02:03:41;;;;;;;78.72;35.50;;;1.20;97.00;;;;;;5073136;28;20954;-82
2021/01/06 02:06:15;;;;;;;73.63;33.97;;;1.20;97.00;;;;;;5070622;28;20470;-82
2021/01/06 02:08:51;;;;;;;76.70;35.08;;;1.20;97.00;;;;;;5073642;28;20402;-81
2021/01/06 02:11:41;;;;;;;72.53;33.85;;;1.20;97.00;;;;;;5069877;28;20425;-82
2021/01/06 02:14:23;;;;;;;75.85;35.05;;;1.20;97.00;;;;;;5091412;28;20480;-82
2021/01/06 02:17:12;;;;;;;70.68;33.53;;;1.20;97.00;;;;;;5059361;28;20430;-81
2021/01/06 02:19:41;;;;;;;75.30;33.45;;;1.20;97.10;;;;;;5070999;28;20403;-82
2021/01/06 02:22:15;;;;;;;69.60;32.63;;;1.20;97.00;;;;;;5084659;28;20456;-82
2021/01/06 02:24:43;;;;;;;71.35;34.10;;;1.20;97.00;;;;;;5073192;28;20398;-82
2021/01/06 02:27:12;;;;;;;70.67;33.23;;;1.20;97.00;;;;;;5061169;28;20408;-82
2021/01/06 02:29:39;;;;;;;71.10;34.15;;;1.20;97.00;;;;;;5070891;28;21316;-82
2021/01/06 02:32:09;;;;;;;74.43;34.17;;;1.20;97.00;;;;;;5074255;28;20450;-82
2021/01/06 02:34:40;;;;;;;72.47;33.42;;;1.20;97.10;;;;;;5073302;28;20386;-82
2021/01/06 02:37:08;;;;;;;69.97;33.33;;;1.20;97.10;;;;;;5084090;28;20411;-82
2021/01/06 02:39:38;;;;;;;67.07;33.63;;;1.20;97.00;;;;;;5052828;28;20462;-82
2021/01/06 02:42:05;;;;;;;69.53;33.23;;;1.20;97.00;;;;;;5068371;28;20493;-82
2021/01/06 02:44:32;;;;;;;67.40;32.60;;;1.20;97.00;;;;;;5074582;28;20418;-82
2021/01/06 02:46:59;;;;;;;64.90;31.67;;;1.20;97.00;;;;;;5074564;28;21184;-82
2021/01/06 02:49:26;;;;;;;61.92;31.30;;;1.30;97.00;;;;;;5085487;28;20478;-82
2021/01/06 02:52:15;;;;;;;62.95;31.88;;;1.20;96.90;;;;;;5072867;28;20475;-82
2021/01/06 02:54:44;;;;;;;64.10;31.05;;;1.20;96.90;;;;;;5070078;28;20402;-82
2021/01/06 02:57:16;;;;;;;67.03;32.50;;;1.30;96.90;;;;;;5072838;28;20405;-82
2021/01/06 02:59:45;;;;;;;65.93;32.60;;;1.20;96.90;;;;;;5055215;28;20399;-82
2021/01/06 03:02:14;;;;;;;65.63;33.05;;;1.20;96.90;;;;;;5052689;28;20404;-82
2021/01/06 03:04:47;;;;;;;67.38;33.03;;;1.20;97.00;;;;;;5068052;28;20759;-82
2021/01/06 03:07:16;;;;;;;68.50;32.78;;;1.10;97.00;;;;;;5070101;28;20403;-82
2021/01/06 03:09:46;;;;;;;66.88;33.17;;;1.20;97.20;;;;;;5078008;28;20875;-82
2021/01/06 03:12:15;;;;;;;62.85;31.85;;;1.20;97.20;;;;;;5072515;28;20510;-82
2021/01/06 03:14:42;;;;;;;67.75;32.58;;;1.10;97.40;;;;;;5069378;28;20454;-81
2021/01/06 03:17:14;;;;;;;67.90;32.65;;;1.20;97.20;;;;;;5072573;28;20870;-81
2021/01/06 03:19:45;;;;;;;64.80;32.47;;;1.20;97.20;;;;;;5087190;28;20394;-82
2021/01/06 03:22:14;;;;;;;57.87;30.30;;;1.10;97.20;;;;;;5090320;28;20451;-81
2021/01/06 03:24:46;;;;;;;62.67;31.48;;;1.20;97.20;;;;;;5081985;28;20431;-81
2021/01/06 03:27:12;;;;;;;59.33;31.25;;;1.20;97.20;;;;;;5067151;28;20464;-82
2021/01/06 03:29:43;;;;;;;62.90;31.63;;;1.20;97.20;;;;;;5051153;28;20407;-81
2021/01/06 03:32:27;;;;;;;61.95;31.75;;;1.20;97.10;;;;;;5066023;28;20419;-82
2021/01/06 03:35:20;;;;;;;62.67;31.15;;;1.20;97.10;;;;;;5069742;28;20439;-82
2021/01/06 03:37:57;;;;;;;55.92;29.75;;;1.20;97.20;;;;;;5052218;28;20416;-82
2021/01/06 03:40:29;;;;;;;61.25;30.98;;;1.30;97.10;;;;;;5068809;28;20446;-81
2021/01/06 03:42:59;;;;;;;61.70;32.07;;;1.20;97.10;;;;;;5072494;28;20443;-82
2021/01/06 03:45:29;;;;;;;59.30;32.20;;;1.20;97.10;;;;;;5086676;28;20882;-82
2021/01/06 03:48:15;;;;;;;58.42;31.15;;;1.20;97.10;;;;;;5046372;28;20590;-82
2021/01/06 03:50:42;;;;;;;60.15;31.60;;;1.20;97.10;;;;;;5059284;28;20430;-82
2021/01/06 03:53:36;;;;;;;57.78;30.83;;;1.30;97.10;;;;;;5053244;28;20479;-82
2021/01/06 03:56:14;;;;;;;62.55;32.88;;;1.30;97.10;;;;;;5055729;28;20407;-82
2021/01/06 03:59:04;;;;;;;58.33;32.13;;;1.30;97.10;;;;;;5055509;28;20404;-82
2021/01/06 04:01:59;;;;;;;57.58;31.73;;;1.30;97.10;;;;;;5054938;28;20878;-81
2021/01/06 04:04:56;;;;;;;59.25;32.40;;;1.30;97.00;;;;;;5055532;28;20419;-82
2021/01/06 04:07:27;;;;;;;60.83;32.80;;;1.20;97.10;;;;;;5073389;28;20413;-82
2021/01/06 04:10:00;;;;;;;55.28;30.35;;;1.30;97.10;;;;;;5093542;28;20413;-82
2021/01/06 04:12:27;;;;;;;56.95;31.45;;;1.30;97.10;;;;;;5090793;28;20477;-82
2021/01/06 04:14:53;;;;;;;58.92;32.22;;;1.30;97.10;;;;;;5093754;28;20539;-82
2021/01/06 04:17:35;;;;;;;58.53;31.15;;;1.30;97.10;;;;;;5073961;28;20802;-83
2021/01/06 04:20:02;;;;;;;57.15;32.22;;;1.30;97.10;;;;;;5073006;28;20391;-82
2021/01/06 04:22:40;;;;;;;59.88;32.47;;;1.30;97.10;;;;;;5092407;28;20402;-82
2021/01/06 04:25:30;;;;;;;58.78;31.73;;;1.30;97.10;;;;;;5051580;28;20411;-82
2021/01/06 04:27:58;;;;;;;61.13;32.00;;;1.30;97.10;;;;;;5071515;28;20415;-82
2021/01/06 04:30:25;;;;;;;61.65;33.22;;;1.30;97.00;;;;;;5075064;28;20437;-82
2021/01/06 04:32:52;;;;;;;65.13;33.70;;;1.30;97.00;;;;;;5075337;28;20476;-82
2021/01/06 04:35:20;;;;;;;62.17;32.97;;;1.20;97.10;;;;;;5072672;28;20409;-82
2021/01/06 04:37:47;;;;;;;62.35;32.60;;;1.20;97.20;;;;;;5075243;28;20478;-82
2021/01/06 04:40:17;;;;;;;65.15;33.38;;;1.30;97.20;;;;;;5072738;28;20494;-82
2021/01/06 04:42:43;;;;;;;65.68;33.67;;;1.30;97.20;;;;;;5093263;28;20402;-82
2021/01/06 04:45:14;;;;;;;63.43;33.87;;;1.30;97.20;;;;;;5062812;28;20407;-82
2021/01/06 04:47:53;;;;;;;62.58;33.28;;;1.30;97.30;;;;;;5075017;28;20402;-82
2021/01/06 04:50:43;;;;;;;64.50;33.60;;;1.30;97.20;;;;;;5090726;28;20402;-82
2021/01/06 04:53:25;;;;;;;62.45;32.20;;;1.30;97.20;;;;;;5075290;28;21045;-82
2021/01/06 04:56:10;;;;;;;61.65;32.65;;;1.20;97.20;;;;;;5084368;28;20853;-82
2021/01/06 04:59:33;;;;;;;62.83;33.17;;;1.30;97.00;;;;;;5074585;28;20398;-82
2021/01/06 05:02:21;;;;;;;63.67;33.55;;;1.20;97.10;;;;;;4972667;28;20466;-82
2021/01/06 05:05:14;;;;;;;57.92;30.85;;;1.20;97.20;;;;;;4990705;28;20466;-82
2021/01/06 05:08:03;;;;;;;60.58;31.88;;;1.20;97.10;;;;;;5023058;28;20457;-82
2021/01/06 05:10:44;;;;;;;66.35;33.22;;;1.20;97.10;;;;;;5038217;28;20847;-81
2021/01/06 05:13:33;;;;;;;58.55;31.55;;;1.20;97.10;;;;;;5074210;28;20495;-82
2021/01/06 05:16:03;;;;;;;62.03;32.88;;;1.20;97.10;;;;;;5085622;28;20400;-82
2021/01/06 05:18:30;;;;;;;56.53;30.85;;;1.20;97.10;;;;;;5054483;28;20404;-82
2021/01/06 05:20:57;;;;;;;59.10;32.25;;;1.20;97.10;;;;;;5058719;28;20886;-81
2021/01/06 05:23:30;;;;;;;58.28;30.77;;;1.20;97.20;;;;;;5054472;28;20399;-82
2021/01/06 05:26:00;;;;;;;55.90;30.90;;;1.20;97.10;;;;;;5072294;28;20400;-82
2021/01/06 05:28:27;;;;;;;57.08;31.40;;;1.20;97.10;;;;;;5052068;28;20415;-82
2021/01/06 05:30:58;;;;;;;52.93;29.67;;;1.20;97.20;;;;;;5054212;28;20446;-82
2021/01/06 05:33:29;;;;;;;53.22;29.88;;;1.20;97.20;;;;;;5053009;28;20400;-82
2021/01/06 05:35:56;;;;;;;53.05;29.40;;;1.20;97.10;;;;;;5072324;28;20853;-82
2021/01/06 05:38:23;;;;;;;56.70;31.40;;;1.20;97.30;;;;;;5065747;28;20812;-82
2021/01/06 05:40:50;;;;;;;56.92;31.40;;;1.20;97.10;;;;;;5073903;28;20406;-82
2021/01/06 05:43:18;;;;;;;60.77;30.33;;;1.20;97.10;;;;;;5079930;28;20477;-82
2021/01/06 05:45:55;;;;;;;51.83;29.87;;;1.30;97.40;;;;;;5077920;28;20406;-82
2021/01/06 05:48:57;;;;;;;60.58;32.30;;;1.30;97.10;;;;;;5064021;28;20399;-82
2021/01/06 05:51:31;;;;;;;64.40;33.72;;;1.20;97.20;;;;;;5082323;28;20479;-82
2021/01/06 05:54:27;;;;;;;64.63;32.75;;;1.20;97.20;;;;;;5089545;28;20452;-82
2021/01/06 05:57:14;;;;;;;64.22;33.03;;;1.20;97.30;;;;;;5071036;28;20442;-82
2021/01/06 06:00:03;;;;;;;67.88;34.13;;;1.20;97.30;;;;;;5070462;28;20497;-82
2021/01/06 06:03:04;;;;;;;69.57;34.15;;;1.20;97.40;;;;;;5073844;28;20411;-82
2021/01/06 06:05:55;;;;;;;64.65;32.97;;;1.20;97.30;;;;;;5063186;28;20423;-82
2021/01/06 06:08:43;;;;;;;68.55;34.33;;;1.20;97.30;;;;;;5053246;28;20509;-82
2021/01/06 06:11:32;;;;;;;68.05;33.92;;;1.20;97.40;;;;;;5053442;28;20485;-82
2021/01/06 06:14:26;;;;;;;69.43;33.60;;;1.10;97.40;;;;;;5051788;28;20504;-82
2021/01/06 06:17:18;;;;;;;68.63;33.65;;;1.10;97.50;;;;;;5091156;28;20463;-82
2021/01/06 06:20:28;;;;;;;68.68;34.05;;;1.10;97.50;;;;;;5089186;28;20894;-82
2021/01/06 06:23:21;;;;;;;67.55;33.92;;;1.10;97.50;;;;;;5082649;28;20430;-82
2021/01/06 06:26:28;;;;;;;65.95;32.83;;;1.10;97.50;;;;;;5088146;28;20803;-82
2021/01/06 06:29:08;;;;;;;68.38;34.00;;;1.10;97.50;;;;;;5077171;28;20842;-82
2021/01/06 06:31:36;;;;;;;66.78;34.15;;;1.10;97.50;;;;;;5073451;28;20424;-82
2021/01/06 06:34:08;;;;;;;64.18;32.97;;;1.10;97.50;;;;;;5071321;28;20467;-82
2021/01/06 06:36:46;;;;;;;65.22;32.75;;;1.10;97.50;;;;;;5087378;28;20455;-82
2021/01/06 06:39:30;;;;;;;67.68;33.88;;;1.00;97.50;;;;;;5072840;28;20399;-82
2021/01/06 06:42:13;;;;;;;63.80;32.42;;;1.00;97.60;;;;;;5070649;28;20441;-82
2021/01/06 06:44:57;;;;;;;58.90;30.67;;;1.10;97.70;;;;;;5090290;28;20457;-82
2021/01/06 06:47:47;;;;;;;57.47;30.63;;;1.10;97.60;;;;;;5056835;28;20454;-82
2021/01/06 06:50:33;;;;;;;57.38;29.67;;;1.10;97.60;;;;;;5071887;28;20415;-82
2021/01/06 06:53:24;;;;;;;57.88;30.30;;;1.10;97.60;;;;;;5071535;28;20473;-82
2021/01/06 06:56:21;;;;;;;58.63;30.40;;;1.10;97.50;;;;;;5052732;28;20465;-82
2021/01/06 06:59:04;;;;;;;54.78;29.15;;;1.10;97.50;;;;;;5069978;28;20407;-82
2021/01/06 07:01:38;;;;;;;56.85;29.67;;;1.10;97.40;;;;;;5075160;28;20887;-82
2021/01/06 07:04:15;;;;;;;58.88;30.95;;;1.10;97.40;;;;;;5070204;28;20415;-82
2021/01/06 07:06:51;;;;;;;55.88;28.58;;;1.10;97.40;;;;;;5070591;28;20404;-82
2021/01/06 07:09:28;;;;;;;56.50;29.42;;;1.30;97.30;;;;;;5052218;28;20408;-82
2021/01/06 07:12:05;;;;;;;62.40;31.17;;;1.20;96.90;;;;;;5079044;28;20430;-81
2021/01/06 07:14:33;;;;;;;53.40;27.60;;;1.20;97.10;;;;;;5070066;28;20438;-82
2021/01/06 07:17:05;;;;;;;50.33;26.67;;;1.20;97.30;;;;;;5090638;28;20433;-82
2021/01/06 07:19:50;;;;;;;49.30;25.10;;;1.30;97.20;;;;;;5088620;28;20390;-82
2021/01/06 07:22:46;;;;;;;46.85;25.02;;;1.40;96.80;;;;;;5090790;28;20455;-82
2021/01/06 07:25:26;;;;;;;45.42;24.83;;;1.30;96.70;;;;;;5051421;28;20502;-82
2021/01/06 07:27:56;;;;;;;46.70;25.40;;;1.40;96.90;;;;;;5074394;28;20454;-81
2021/01/06 07:30:35;;;;;;;46.90;26.33;;;1.30;96.60;;;;;;5073348;28;20429;-81
2021/01/06 07:33:33;;;;;;;46.75;25.05;;;1.30;96.90;;;;;;5076611;28;20422;-81
2021/01/06 07:36:23;;;;;;;43.88;24.80;;;1.20;97.10;;;;;;5072852;28;20407;-82
2021/01/06 07:38:51;;;;;;;42.25;24.20;;;1.20;97.40;;;;;;5073408;28;20396;-81
2021/01/06 07:41:24;;;;;;;43.50;24.27;;;1.20;97.20;;;;;;5075383;28;20394;-80
2021/01/06 07:44:04;;;;;;;44.58;24.77;;;1.20;97.20;;;;;;5076327;28;20405;-82
2021/01/06 07:46:57;;;;;;;40.28;23.35;;;1.20;97.20;;;;;;5069560;28;20475;-82
2021/01/06 07:49:31;;;;;;;37.70;22.10;;;1.20;97.20;;;;;;5026987;28;20484;-81
2021/01/06 07:52:14;;;;;;;36.05;21.40;;;1.20;97.30;;;;;;5093494;28;20757;-82
2021/01/06 07:55:00;;;;;;;36.90;22.23;;;1.20;97.20;;;;;;5088769;28;20398;-81
2021/01/06 07:57:42;;;;;;;33.92;20.58;;;1.30;97.20;;;;;;5055963;28;20439;-82
2021/01/06 08:00:11;;;;;;;32.47;20.53;;;1.40;96.90;;;;;;5053943;28;20465;-81
2021/01/06 08:02:57;;;;;;;35.08;21.10;;;1.50;96.40;;;;;;5075876;28;20430;-81
2021/01/06 08:05:29;;;;;;;32.38;20.98;;;1.40;96.70;;;;;;5089916;28;20405;-82
2021/01/06 08:08:05;;;;;;;34.10;21.48;;;1.60;96.40;;;;;;5058179;28;21484;-82
2021/01/06 08:10:33;;;;;;;35.17;21.75;;;1.50;96.20;;;;;;5070615;28;20437;-82
2021/01/06 08:13:21;;;;;;;37.88;23.08;;;1.40;96.30;;;;;;5053396;28;20533;-82
2021/01/06 08:15:56;;;;;;;33.97;21.27;;;1.50;96.60;;;;;;5079726;28;20452;-83
2021/01/06 08:18:49;;;;;;;38.85;23.98;;;1.60;95.80;;;;;;5055631;28;20493;-82
2021/01/06 08:21:45;;;;;;;34.88;23.23;;;1.50;95.80;;;;;;5032555;28;20409;-82
2021/01/06 08:24:22;;;;;;;39.42;25.50;;;1.80;95.30;;;;;;5065887;28;20408;-83
2021/01/06 08:26:57;;;;;;;43.00;26.50;;;1.60;95.60;;;;;;5069153;28;20458;-82
2021/01/06 08:29:27;;;;;;;45.47;27.42;;;1.50;96.00;;;;;;5055427;28;20396;-83
2021/01/06 08:31:59;;;;;;;46.13;28.85;;;1.60;95.50;;;;;;5072599;28;20423;-82
2021/01/06 08:34:48;;;;;;;47.88;29.13;;;1.40;95.60;;;;;;5093451;28;20433;-82
2021/01/06 08:37:23;;;;;;;47.05;29.23;;;1.40;96.10;;;;;;5076564;28;20452;-81
2021/01/06 08:39:57;;;;;;;48.38;29.45;;;1.50;95.80;;;;;;5075908;28;20868;-84
2021/01/06 08:42:40;;;;;;;49.45;30.05;;;1.50;95.70;;;;;;5092785;28;20463;-83
2021/01/06 08:45:17;;;;;;;51.22;30.95;;;1.50;95.40;;;;;;5093864;28;20412;-85
2021/01/06 08:47:44;;;;;;;53.95;31.92;;;1.50;95.40;;;;;;5071981;28;20400;-83
2021/01/06 08:50:18;;;;;;;50.92;32.40;;;1.50;95.50;;;;;;5073762;28;20403;-82
2021/01/06 08:53:05;;;;;;;54.88;33.03;;;1.40;95.30;;;;;;5114397;28;20460;-82
2021/01/06 08:55:40;;;;;;;56.50;33.50;;;1.50;95.10;;;;;;5073941;28;20858;-83
2021/01/06 08:58:12;;;;;;;55.95;34.33;;;1.40;95.20;;;;;;5055436;28;20543;-84
2021/01/06 09:00:44;;;;;;;58.90;34.55;;;1.40;95.30;;;;;;5074241;28;20396;-84
2021/01/06 09:03:37;;;;;;;59.50;34.53;;;1.50;95.10;;;;;;5074076;28;20922;-84
2021/01/06 09:06:10;;;;;;;58.58;35.60;;;1.40;94.70;;;;;;5072810;28;20465;-84
2021/01/06 09:08:36;;;;;;;60.45;36.17;;;1.50;94.40;;;;;;5055035;28;20439;-84
2021/01/06 09:11:18;;;;;;;65.28;38.00;;;1.40;94.50;;;;;;5053728;28;20457;-84
2021/01/06 09:13:51;;;;;;;63.60;38.07;;;1.40;95.00;;;;;;5054973;28;20424;-84
2021/01/06 09:16:24;;;;;;;63.72;37.67;;;1.40;94.80;;;;;;5071363;28;20453;-83
2021/01/06 09:19:18;;;;;;;62.08;35.65;;;1.40;95.00;;;;;;5075303;28;20398;-84
2021/01/06 09:21:46;;;;;;;68.78;39.10;;;1.50;94.50;;;;;;5091377;28;20445;-84
2021/01/06 09:24:24;;;;;;;71.67;39.70;;;1.50;94.50;;;;;;5075828;28;20432;-84
2021/01/06 09:26:54;;;;;;;62.90;36.63;;;1.50;94.90;;;;;;5069048;28;20467;-84
2021/01/06 09:29:25;;;;;;;60.10;35.55;;;1.70;94.50;;;;;;5075948;28;20545;-84
2021/01/06 09:32:00;;;;;;;53.63;32.17;;;1.80;94.60;;;;;;5091881;28;20803;-83
2021/01/06 09:34:32;;;;;;;55.10;33.63;;;1.90;93.50;;;;;;5075891;28;20821;-84
2021/01/06 09:36:59;;;;;;;53.95;32.28;;;1.80;93.50;;;;;;5091282;28;20432;-83
2021/01/06 09:39:31;;;;;;;56.97;33.30;;;1.70;93.90;;;;;;5075207;28;20398;-83
2021/01/06 09:42:04;;;;;;;51.47;30.65;;;1.70;94.30;;;;;;5073777;28;20397;-83
2021/01/06 09:44:31;;;;;;;49.40;29.90;;;1.70;94.10;;;;;;5075418;28;20843;-83
2021/01/06 09:47:01;;;;;;;54.00;31.90;;;1.60;93.70;;;;;;5090958;28;20868;-86
2021/01/06 09:49:32;;;;;;;54.35;32.42;;;1.60;94.20;;;;;;5075917;28;20406;-86
2021/01/06 09:52:04;;;;;;;49.30;30.80;;;1.60;94.50;;;;;;5083847;28;20423;-87
2021/01/06 09:54:32;;;;;;;54.33;33.03;;;1.60;94.30;;;;;;5075652;28;20394;-87
2021/01/06 09:57:02;;;;;;;49.77;31.57;;;1.70;94.10;;;;;;5087351;28;20439;-87
2021/01/06 09:59:34;;;;;;;51.97;32.17;;;1.70;94.20;;;;;;5056330;28;20943;-87
2021/01/06 10:02:14;;;;;;;49.95;32.00;;;1.70;94.10;;;;;;5057036;28;20468;-84
2021/01/06 10:04:42;;;;;;;52.60;32.60;;;1.70;94.40;;;;;;5075422;28;20550;-86
2021/01/06 10:07:25;;;;;;;55.53;35.00;;;1.70;94.40;;;;;;5074019;28;20421;-86
2021/01/06 10:10:28;;;;;;;60.50;37.80;;;1.60;94.50;;;;;;5093284;28;20419;-86
2021/01/06 10:13:16;;;;;;;60.38;38.78;;;1.80;94.30;;;;;;5056051;28;20517;-86
2021/01/06 10:16:07;;;;;;;60.47;37.17;;;1.80;94.40;;;;;;5073191;28;20404;-86
2021/01/06 10:19:02;;;;;;;51.45;31.35;;;1.70;94.50;;;;;;5060501;28;20447;-83
2021/01/06 10:21:46;;;;;;;52.50;33.58;;;1.70;94.50;;;;;;5073516;28;20414;-83
2021/01/06 10:24:35;;;;;;;50.38;33.30;;;1.70;95.00;;;;;;5070203;28;20410;-84
2021/01/06 10:27:14;;;;;;;51.20;32.58;;;1.80;94.20;;;;;;5021699;28;20450;-84
2021/01/06 10:29:49;;;;;;;54.50;34.67;;;1.80;94.70;;;;;;5070445;28;20459;-84
2021/01/06 10:32:44;;;;;;;51.00;31.15;;;1.80;94.60;;;;;;5091109;28;20422;-84
2021/01/06 10:35:36;;;;;;;49.03;30.98;;;1.90;94.40;;;;;;5057886;28;20576;-84
2021/01/06 10:38:44;;;;;;;48.47;31.17;;;1.90;94.50;;;;;;5047775;28;20822;-84
2021/01/06 10:41:18;;;;;;;46.70;29.50;;;1.90;94.60;;;;;;5059981;28;20402;-83
2021/01/06 10:43:55;;;;;;;44.78;27.95;;;2.00;94.10;;;;;;5073068;28;20461;-83
2021/01/06 10:46:37;;;;;;;48.45;30.15;;;2.00;93.80;;;;;;5064208;28;20559;-83
2021/01/06 10:49:27;;;;;;;46.90;29.95;;;1.90;94.50;;;;;;5073072;28;20434;-83
2021/01/06 10:51:57;;;;;;;46.95;29.95;;;2.00;94.70;;;;;;5027499;28;20438;-83
2021/01/06 10:55:07;;;;;;;45.70;28.50;;;2.00;94.50;;;;;;5088924;28;21022;-83
2021/01/06 10:57:47;;;;;;;47.22;29.95;;;2.00;94.20;;;;;;5038631;28;20439;-83
2021/01/06 11:00:19;;;;;;;45.45;28.75;;;2.00;94.60;;;;;;5054404;28;20430;-84
2021/01/06 11:03:13;;;;;;;47.63;29.77;;;2.10;93.90;;;;;;5074805;28;20451;-83
2021/01/06 11:05:44;;;;;;;45.35;28.83;;;2.00;94.30;;;;;;5072638;28;20431;-88
2021/01/06 11:08:41;;;;;;;44.88;28.85;;;2.10;94.10;;;;;;5092213;28;20437;-85
2021/01/06 11:11:19;;;;;;;39.17;26.50;;;2.20;94.00;;;;;;5081954;28;20843;-84
2021/01/06 11:14:17;;;;;;;40.60;26.13;;;2.40;93.40;;;;;;5073688;28;20414;-83
2021/01/06 11:17:17;;;;;;;42.38;26.58;;;2.30;93.00;;;;;;5077721;28;20398;-89
2021/01/06 11:19:53;;;;;;;47.40;29.38;;;2.20;92.50;;;;;;5074962;28;20405;-88
2021/01/06 11:22:32;;;;;;;41.47;26.98;;;2.20;93.60;;;;;;5073130;28;20568;-88
2021/01/06 11:25:04;;;;;;;42.88;27.95;;;2.20;93.30;;;;;;5074862;28;20402;-88
2021/01/06 11:27:53;;;;;;;46.67;27.83;;;2.30;93.40;;;;;;5089678;28;20401;-86
2021/01/06 11:30:31;;;;;;;39.60;25.75;;;2.40;93.60;;;;;;5092665;28;20863;-96
2021/01/06 11:33:15;;;;;;;40.50;26.73;;;2.60;92.60;;;;;;5087345;28;20474;-85
2021/01/06 11:35:52;;;;;;;36.60;24.63;;;2.50;92.50;;;;;;5074850;28;20419;-85
2021/01/06 11:38:33;;;;;;;38.00;25.33;;;2.60;91.90;;;;;;5090200;28;20421;-87
2021/01/06 11:41:00;;;;;;;37.93;23.50;;;2.70;92.30;;;;;;5073906;28;20486;-85
2021/01/06 11:43:31;;;;;;;39.47;24.33;;;2.70;91.90;;;;;;5090293;28;20459;-85
2021/01/06 11:46:02;;;;;;;38.83;24.83;;;2.80;91.60;;;;;;5091614;28;20463;-85
2021/01/06 11:48:36;;;;;;;36.60;24.42;;;2.70;92.00;;;;;;5072059;28;20398;-86
2021/01/06 11:51:20;;;;;;;40.03;25.13;;;2.90;91.70;;;;;;5092335;28;20441;-86
2021/01/06 11:54:04;;;;;;;36.87;24.23;;;2.90;91.40;;;;;;5089071;28;20430;-82
2021/01/06 11:56:35;;;;;;;34.45;22.70;;;3.10;91.20;;;;;;5083477;28;20421;-82
2021/01/06 11:59:34;;;;;;;33.67;21.83;;;3.40;90.30;;;;;;5084365;28;20411;-83
2021/01/06 12:02:19;;;;;;;32.15;22.00;;;3.40;90.00;;;;;;5071521;28;20858;-83
2021/01/06 12:05:12;;;;;;;34.20;22.60;;;3.40;89.00;;;;;;5079105;28;20470;-83
2021/01/06 12:07:49;;;;;;;31.63;20.73;;;3.40;89.80;;;;;;5073306;28;20421;-84
2021/01/06 12:10:46;;;;;;;33.13;21.35;;;3.30;89.60;;;;;;5092857;28;20409;-83
2021/01/06 12:13:22;;;;;;;31.75;20.90;;;3.30;88.90;;;;;;5063048;28;20429;-84
2021/01/06 12:16:28;;;;;;;30.00;20.80;;;3.50;89.30;;;;;;5068268;28;20418;-83
2021/01/06 12:18:57;;;;;;;31.95;21.45;;;3.60;88.60;;;;;;4993344;28;20837;-83
2021/01/06 12:21:36;;;;;;;30.95;20.73;;;3.80;88.40;;;;;;5068931;28;20437;-83
2021/01/06 12:24:34;;;;;;;30.92;20.55;;;3.70;86.70;;;;;;5077178;28;20542;-83
2021/01/06 12:27:21;;;;;;;32.20;20.70;;;3.70;86.90;;;;;;5046761;28;20414;-83
2021/01/06 12:30:06;;;;;;;28.17;19.10;;;3.90;86.50;;;;;;5077058;28;20463;-84
2021/01/06 12:32:58;;;;;;;29.95;19.10;;;4.00;85.10;;;;;;5075787;28;20945;-83
2021/01/06 12:35:31;;;;;;;28.90;19.80;;;4.00;84.10;;;;;;5075872;28;20857;-83
2021/01/06 12:38:18;;;;;;;30.15;19.48;;;3.80;85.00;;;;;;5074856;28;20423;-83
2021/01/06 12:41:08;;;;;;;28.95;19.13;;;3.90;86.40;;;;;;5055567;28;20470;-83
2021/01/06 12:43:42;;;;;;;30.77;20.33;;;4.00;85.70;;;;;;5076979;28;20398;-83
2021/01/06 12:46:35;;;;;;;30.70;20.38;;;4.00;85.60;;;;;;5084518;28;20407;-83
2021/01/06 12:49:14;;;;;;;29.35;19.23;;;3.90;85.80;;;;;;5076211;28;20405;-85
2021/01/06 12:51:53;;;;;;;30.55;19.98;;;4.00;85.40;;;;;;5092290;28;20409;-84
2021/01/06 12:54:21;;;;;;;30.23;19.67;;;3.80;85.70;;;;;;5066197;28;20402;-85
2021/01/06 12:57:14;;;;;;;30.42;19.83;;;3.80;85.80;;;;;;5093009;28;20402;-84
2021/01/06 13:00:12;;;;;;;27.60;18.17;;;3.70;85.80;;;;;;5094536;28;20398;-85
2021/01/06 13:02:41;;;;;;;27.65;18.30;;;3.80;85.00;;;;;;5092666;28;20471;-84
2021/01/06 13:05:19;;;;;;;27.65;17.80;;;3.70;85.10;;;;;;5094131;28;20417;-84
2021/01/06 13:07:55;;;;;;;28.90;17.37;;;3.70;86.20;;;;;;5065690;28;20453;-84
2021/01/06 13:10:35;;;;;;;27.40;17.63;;;3.70;85.00;;;;;;5072933;28;20785;-82
2021/01/06 13:13:32;;;;;;;25.80;17.52;;;3.70;84.40;;;;;;5077558;28;20446;-84
2021/01/06 13:16:16;;;;;;;26.23;17.55;;;3.70;83.60;;;;;;5090429;28;20497;-84
2021/01/06 13:18:50;;;;;;;24.67;16.63;;;3.50;84.90;;;;;;5061602;28;20904;-83
2021/01/06 13:21:31;;;;;;;25.25;16.63;;;3.50;83.20;;;;;;5068080;28;20396;-84
2021/01/06 13:23:57;;;;;;;25.85;16.70;;;3.30;84.30;;;;;;5061064;28;20410;-84
2021/01/06 13:26:33;;;;;;;25.52;17.00;;;3.20;85.40;;;;;;5094347;28;20424;-84
2021/01/06 13:29:09;;;;;;;26.17;16.73;;;3.10;86.10;;;;;;5070128;28;20501;-84